sensor_id;sensor_type;location;lat;lon;timestamp;pressure;altitude;pressure_sealevel;temperature;humidity
46111;BME280;31849;55.992;37.252;2023-07-30T00:04:45;98144.75;;;15.92;63.95
46111;BME280;31849;55.992;37.252;2023-07-30T00:09:48;98151.28;;;15.83;64.17
46111;BME280;31849;55.992;37.252;2023-07-30T00:14:52;98146.16;;;15.80;63.99
46111;BME280;31849;55.992;37.252;2023-07-30T00:19:57;98152.84;;;15.87;64.22
46111;BME280;31849;55.992;37.252;2023-07-30T00:25:01;98142.75;;;15.78;64.52
46111;BME280;31849;55.992;37.252;2023-07-30T00:30:07;98146.09;;;15.81;64.41
46111;BME280;31849;55.992;37.252;2023-07-30T00:35:12;98161.09;;;15.78;64.78
46111;BME280;31849;55.992;37.252;2023-07-30T00:40:16;98147.66;;;15.65;64.88
46111;BME280;31849;55.992;37.252;2023-07-30T00:45:21;98153.31;;;15.56;65.15
46111;BME280;31849;55.992;37.252;2023-07-30T00:50:26;98149.69;;;15.58;65.36
46111;BME280;31849;55.992;37.252;2023-07-30T00:55:29;98130.47;;;15.39;65.75
46111;BME280;31849;55.992;37.252;2023-07-30T01:00:33;98146.38;;;15.55;65.69
46111;BME280;31849;55.992;37.252;2023-07-30T01:05:38;98128.59;;;15.61;65.84
46111;BME280;31849;55.992;37.252;2023-07-30T01:10:42;98137.13;;;15.67;65.94
46111;BME280;31849;55.992;37.252;2023-07-30T01:15:47;98135.34;;;15.67;66.35
46111;BME280;31849;55.992;37.252;2023-07-30T01:20:57;98121.53;;;15.84;66.56
46111;BME280;31849;55.992;37.252;2023-07-30T01:26:05;98117.81;;;15.88;66.56
46111;BME280;31849;55.992;37.252;2023-07-30T01:31:14;98131.94;;;16.05;66.78
46111;BME280;31849;55.992;37.252;2023-07-30T01:36:20;98119.63;;;16.07;66.50
46111;BME280;31849;55.992;37.252;2023-07-30T01:41:24;98117.97;;;16.04;66.63
46111;BME280;31849;55.992;37.252;2023-07-30T01:46:28;98112.09;;;15.99;66.59
46111;BME280;31849;55.992;37.252;2023-07-30T01:51:35;98121.03;;;16.14;66.46
46111;BME280;31849;55.992;37.252;2023-07-30T01:56:39;98122.84;;;16.12;66.19
46111;BME280;31849;55.992;37.252;2023-07-30T02:01:43;98131.44;;;16.15;66.21
46111;BME280;31849;55.992;37.252;2023-07-30T02:06:48;98130.25;;;16.23;66.08
46111;BME280;31849;55.992;37.252;2023-07-30T02:11:51;98132.94;;;16.21;65.84
46111;BME280;31849;55.992;37.252;2023-07-30T02:16:55;98129.38;;;16.22;65.85
46111;BME280;31849;55.992;37.252;2023-07-30T02:22:00;98131.53;;;16.33;65.81
46111;BME280;31849;55.992;37.252;2023-07-30T02:27:04;98136.19;;;16.26;65.99
46111;BME280;31849;55.992;37.252;2023-07-30T02:32:08;98148.25;;;16.30;65.89
46111;BME280;31849;55.992;37.252;2023-07-30T02:37:13;98139.16;;;16.38;65.61
46111;BME280;31849;55.992;37.252;2023-07-30T02:42:17;98144.75;;;16.30;65.80
46111;BME280;31849;55.992;37.252;2023-07-30T02:47:21;98147.19;;;16.34;65.93
46111;BME280;31849;55.992;37.252;2023-07-30T02:52:26;98151.53;;;16.53;65.33
46111;BME280;31849;55.992;37.252;2023-07-30T02:57:30;98155.56;;;16.60;64.92
46111;BME280;31849;55.992;37.252;2023-07-30T03:02:33;98159.63;;;16.67;64.80
46111;BME280;31849;55.992;37.252;2023-07-30T03:07:39;98166.31;;;16.92;64.56
46111;BME280;31849;55.992;37.252;2023-07-30T03:12:42;98173.22;;;17.12;63.69
46111;BME280;31849;55.992;37.252;2023-07-30T03:17:46;98177.84;;;17.42;62.89
46111;BME280;31849;55.992;37.252;2023-07-30T03:22:51;98175.78;;;17.82;62.00
46111;BME280;31849;55.992;37.252;2023-07-30T03:27:55;98189.25;;;18.43;60.72
46111;BME280;31849;55.992;37.252;2023-07-30T03:32:59;98183.28;;;18.71;59.89
46111;BME280;31849;55.992;37.252;2023-07-30T03:38:04;98184.31;;;19.01;59.52
46111;BME280;31849;55.992;37.252;2023-07-30T03:43:08;98186.00;;;19.32;58.79
46111;BME280;31849;55.992;37.252;2023-07-30T03:48:11;98183.00;;;19.83;57.67
46111;BME280;31849;55.992;37.252;2023-07-30T03:53:16;98184.47;;;20.59;55.99
46111;BME280;31849;55.992;37.252;2023-07-30T03:58:20;98193.59;;;22.01;52.49
46111;BME280;31849;55.992;37.252;2023-07-30T04:03:24;98193.03;;;26.20;43.45
46111;BME280;31849;55.992;37.252;2023-07-30T04:08:29;98199.25;;;30.15;35.73
46111;BME280;31849;55.992;37.252;2023-07-30T04:13:32;98210.69;;;31.44;33.28
46111;BME280;31849;55.992;37.252;2023-07-30T04:18:36;98210.69;;;32.66;31.56
46111;BME280;31849;55.992;37.252;2023-07-30T04:23:41;98216.09;;;30.08;35.40
46111;BME280;31849;55.992;37.252;2023-07-30T04:28:45;98209.19;;;31.17;33.34
46111;BME280;31849;55.992;37.252;2023-07-30T04:33:48;98216.34;;;34.92;28.09
46111;BME280;31849;55.992;37.252;2023-07-30T04:38:54;98213.72;;;36.13;26.21
46111;BME280;31849;55.992;37.252;2023-07-30T04:43:57;98217.97;;;36.71;25.48
46111;BME280;31849;55.992;37.252;2023-07-30T04:49:02;98218.97;;;37.18;24.66
46111;BME280;31849;55.992;37.252;2023-07-30T04:54:07;98205.78;;;36.05;25.40
46111;BME280;31849;55.992;37.252;2023-07-30T04:59:11;98227.47;;;35.83;26.25
46111;BME280;31849;55.992;37.252;2023-07-30T05:04:14;98224.59;;;35.42;25.90
46111;BME280;31849;55.992;37.252;2023-07-30T05:09:19;98230.50;;;35.30;26.61
46111;BME280;31849;55.992;37.252;2023-07-30T05:14:24;98226.53;;;37.29;23.63
46111;BME280;31849;55.992;37.252;2023-07-30T05:19:27;98241.75;;;39.35;21.41
46111;BME280;31849;55.992;37.252;2023-07-30T05:24:32;98243.41;;;40.37;20.52
46111;BME280;31849;55.992;37.252;2023-07-30T05:29:36;98245.88;;;41.66;19.28
46111;BME280;31849;55.992;37.252;2023-07-30T05:34:39;98250.28;;;43.03;18.07
46111;BME280;31849;55.992;37.252;2023-07-30T05:39:44;98256.19;;;44.65;16.27
46111;BME280;31849;55.992;37.252;2023-07-30T05:44:48;98249.53;;;45.97;15.08
46111;BME280;31849;55.992;37.252;2023-07-30T05:49:52;98250.66;;;46.54;14.58
46111;BME280;31849;55.992;37.252;2023-07-30T05:54:57;98250.31;;;46.98;14.28
46111;BME280;31849;55.992;37.252;2023-07-30T06:00:00;98251.34;;;46.87;14.03
46111;BME280;31849;55.992;37.252;2023-07-30T06:05:06;98246.06;;;46.60;14.12
46111;BME280;31849;55.992;37.252;2023-07-30T06:10:11;98250.88;;;48.34;13.02
46111;BME280;31849;55.992;37.252;2023-07-30T06:15:15;98241.91;;;48.68;12.26
46111;BME280;31849;55.992;37.252;2023-07-30T06:20:18;98236.50;;;46.83;13.30
46111;BME280;31849;55.992;37.252;2023-07-30T06:25:23;98224.81;;;45.97;14.39
46111;BME280;31849;55.992;37.252;2023-07-30T06:30:27;98223.34;;;44.70;15.48
46111;BME280;31849;55.992;37.252;2023-07-30T06:35:31;98224.16;;;44.70;14.83
46111;BME280;31849;55.992;37.252;2023-07-30T06:40:36;98210.25;;;43.60;15.78
46111;BME280;31849;55.992;37.252;2023-07-30T06:45:39;98211.41;;;43.01;15.89
46111;BME280;31849;55.992;37.252;2023-07-30T06:50:43;98202.59;;;42.06;17.32
46111;BME280;31849;55.992;37.252;2023-07-30T06:55:48;98205.94;;;44.20;15.45
46111;BME280;31849;55.992;37.252;2023-07-30T07:00:51;98203.63;;;44.29;15.32
46111;BME280;31849;55.992;37.252;2023-07-30T07:05:56;98213.00;;;44.33;15.46
46111;BME280;31849;55.992;37.252;2023-07-30T07:11:01;98202.38;;;45.73;14.12
46111;BME280;31849;55.992;37.252;2023-07-30T07:16:05;98202.59;;;45.66;14.32
46111;BME280;31849;55.992;37.252;2023-07-30T07:21:08;98206.03;;;43.69;15.67
46111;BME280;31849;55.992;37.252;2023-07-30T07:26:13;98204.91;;;44.65;14.77
46111;BME280;31849;55.992;37.252;2023-07-30T07:31:17;98197.84;;;45.51;13.82
46111;BME280;31849;55.992;37.252;2023-07-30T07:36:20;98196.72;;;45.20;14.70
46111;BME280;31849;55.992;37.252;2023-07-30T07:41:25;98205.84;;;43.59;15.46
46111;BME280;31849;55.992;37.252;2023-07-30T07:46:29;98203.38;;;44.52;14.37
46111;BME280;31849;55.992;37.252;2023-07-30T07:51:33;98203.00;;;45.47;13.80
46111;BME280;31849;55.992;37.252;2023-07-30T07:56:39;98194.81;;;45.90;13.00
46111;BME280;31849;55.992;37.252;2023-07-30T08:01:42;98184.47;;;46.08;12.83
46111;BME280;31849;55.992;37.252;2023-07-30T08:06:46;98184.72;;;45.26;13.55
46111;BME280;31849;55.992;37.252;2023-07-30T08:11:51;98189.03;;;44.67;13.76
46111;BME280;31849;55.992;37.252;2023-07-30T08:16:55;98187.25;;;43.95;14.40
46111;BME280;31849;55.992;37.252;2023-07-30T08:21:58;98175.06;;;42.72;14.59
46111;BME280;31849;55.992;37.252;2023-07-30T08:27:04;98185.00;;;41.42;15.94
46111;BME280;31849;55.992;37.252;2023-07-30T08:32:08;98181.50;;;39.63;16.85
46111;BME280;31849;55.992;37.252;2023-07-30T08:37:11;98187.34;;;37.86;19.08
46111;BME280;31849;55.992;37.252;2023-07-30T08:42:16;98181.00;;;36.36;20.40
46111;BME280;31849;55.992;37.252;2023-07-30T08:47:20;98184.50;;;35.23;21.36
46111;BME280;31849;55.992;37.252;2023-07-30T08:52:25;98187.78;;;34.31;23.00
46111;BME280;31849;55.992;37.252;2023-07-30T08:57:30;98182.84;;;34.20;23.13
46111;BME280;31849;55.992;37.252;2023-07-30T09:02:38;98181.75;;;33.23;24.44
46111;BME280;31849;55.992;37.252;2023-07-30T09:07:42;98180.03;;;32.67;24.38
46111;BME280;31849;55.992;37.252;2023-07-30T09:12:52;98187.88;;;32.37;24.94
46111;BME280;31849;55.992;37.252;2023-07-30T09:17:57;98189.31;;;32.17;24.60
46111;BME280;31849;55.992;37.252;2023-07-30T09:23:00;98192.72;;;31.94;24.51
46111;BME280;31849;55.992;37.252;2023-07-30T09:28:06;98180.91;;;32.03;24.94
46111;BME280;31849;55.992;37.252;2023-07-30T09:33:10;98200.31;;;31.66;25.02
46111;BME280;31849;55.992;37.252;2023-07-30T09:38:21;98197.94;;;31.54;25.46
46111;BME280;31849;55.992;37.252;2023-07-30T09:43:29;98196.03;;;30.97;25.99
46111;BME280;31849;55.992;37.252;2023-07-30T09:48:35;98199.50;;;30.30;27.27
46111;BME280;31849;55.992;37.252;2023-07-30T09:53:39;98201.28;;;30.22;27.97
46111;BME280;31849;55.992;37.252;2023-07-30T09:58:45;98171.75;;;30.13;27.08
46111;BME280;31849;55.992;37.252;2023-07-30T10:03:49;98195.03;;;30.13;28.03
46111;BME280;31849;55.992;37.252;2023-07-30T10:08:53;98191.94;;;29.99;28.39
46111;BME280;31849;55.992;37.252;2023-07-30T10:14:00;98196.28;;;30.27;27.95
46111;BME280;31849;55.992;37.252;2023-07-30T10:19:04;98186.88;;;30.23;28.28
46111;BME280;31849;55.992;37.252;2023-07-30T10:24:08;98206.66;;;30.22;28.23
46111;BME280;31849;55.992;37.252;2023-07-30T10:29:18;98201.50;;;29.76;27.79
46111;BME280;31849;55.992;37.252;2023-07-30T10:34:25;98190.16;;;29.38;28.58
46111;BME280;31849;55.992;37.252;2023-07-30T10:39:29;98199.69;;;28.86;29.15
46111;BME280;31849;55.992;37.252;2023-07-30T10:44:35;98208.19;;;28.82;29.71
46111;BME280;31849;55.992;37.252;2023-07-30T10:49:39;98204.47;;;28.83;29.35
46111;BME280;31849;55.992;37.252;2023-07-30T10:54:43;98192.19;;;28.90;29.56
46111;BME280;31849;55.992;37.252;2023-07-30T10:59:48;98195.81;;;28.15;30.26
46111;BME280;31849;55.992;37.252;2023-07-30T11:04:52;98207.78;;;28.01;30.80
46111;BME280;31849;55.992;37.252;2023-07-30T11:09:59;98194.91;;;28.24;30.39
46111;BME280;31849;55.992;37.252;2023-07-30T11:15:07;98202.44;;;28.01;31.04
46111;BME280;31849;55.992;37.252;2023-07-30T11:20:22;98199.97;;;28.28;30.60
46111;BME280;31849;55.992;37.252;2023-07-30T11:25:26;98196.66;;;28.43;30.73
46111;BME280;31849;55.992;37.252;2023-07-30T11:30:32;98201.38;;;28.32;30.67
